sensor_id;sensor_type;location;lat;lon;timestamp;pressure;altitude;pressure_sealevel;temperature;humidity
13434;BME280;6789;47.678;9.158;2023-07-29T00:03:39;96460.22;;;18.80;100.00
13434;BME280;6789;47.678;9.158;2023-07-29T00:08:33;96456.88;;;18.69;100.00
13434;BME280;6789;47.678;9.158;2023-07-29T00:13:25;96451.34;;;18.66;100.00
13434;BME280;6789;47.678;9.158;2023-07-29T00:18:17;96462.13;;;18.98;100.00
13434;BME280;6789;47.678;9.158;2023-07-29T00:23:09;96449.47;;;19.13;100.00
13434;BME280;6789;47.678;9.158;2023-07-29T00:28:00;96441.69;;;18.98;100.00
13434;BME280;6789;47.678;9.158;2023-07-29T00:32:52;96440.25;;;18.82;100.00
13434;BME280;6789;47.678;9.158;2023-07-29T00:37:44;96439.69;;;18.85;100.00
13434;BME280;6789;47.678;9.158;2023-07-29T00:42:36;96437.09;;;18.80;100.00
13434;BME280;6789;47.678;9.158;2023-07-29T00:47:28;96434.59;;;18.89;100.00
13434;BME280;6789;47.678;9.158;2023-07-29T00:52:19;96427.38;;;18.71;100.00
13434;BME280;6789;47.678;9.158;2023-07-29T00:57:15;96425.94;;;18.55;100.00
13434;BME280;6789;47.678;9.158;2023-07-29T01:02:08;96427.19;;;18.63;100.00
13434;BME280;6789;47.678;9.158;2023-07-29T01:07:41;96424.91;;;18.98;100.00
13434;BME280;6789;47.678;9.158;2023-07-29T01:13:09;96435.44;;;19.08;100.00
13434;BME280;6789;47.678;9.158;2023-07-29T01:18:08;96437.84;;;19.09;100.00
13434;BME280;6789;47.678;9.158;2023-07-29T01:23:02;96426.25;;;19.00;100.00
13434;BME280;6789;47.678;9.158;2023-07-29T01:27:55;96425.72;;;18.98;100.00
13434;BME280;6789;47.678;9.158;2023-07-29T01:38:09;96413.28;;;18.47;100.00
13434;BME280;6789;47.678;9.158;2023-07-29T01:43:05;96405.63;;;18.41;100.00
13434;BME280;6789;47.678;9.158;2023-07-29T01:47:59;96416.00;;;18.37;100.00
13434;BME280;6789;47.678;9.158;2023-07-29T01:52:50;96410.25;;;18.30;100.00
13434;BME280;6789;47.678;9.158;2023-07-29T01:57:43;96414.13;;;18.43;100.00
13434;BME280;6789;47.678;9.158;2023-07-29T02:02:36;96402.69;;;18.42;100.00
13434;BME280;6789;47.678;9.158;2023-07-29T02:07:28;96396.94;;;18.35;100.00
13434;BME280;6789;47.678;9.158;2023-07-29T02:12:20;96384.75;;;18.29;100.00
13434;BME280;6789;47.678;9.158;2023-07-29T02:17:12;96401.44;;;18.35;100.00
13434;BME280;6789;47.678;9.158;2023-07-29T02:22:04;96388.69;;;18.37;100.00
13434;BME280;6789;47.678;9.158;2023-07-29T02:26:56;96379.06;;;18.41;100.00
13434;BME280;6789;47.678;9.158;2023-07-29T02:31:47;96373.81;;;18.36;100.00
13434;BME280;6789;47.678;9.158;2023-07-29T02:36:39;96394.41;;;18.72;100.00
13434;BME280;6789;47.678;9.158;2023-07-29T02:41:31;96390.44;;;18.46;100.00
13434;BME280;6789;47.678;9.158;2023-07-29T02:46:23;96390.44;;;18.46;100.00
13434;BME280;6789;47.678;9.158;2023-07-29T02:51:15;96391.25;;;18.70;100.00
13434;BME280;6789;47.678;9.158;2023-07-29T02:56:06;96386.09;;;18.78;100.00
13434;BME280;6789;47.678;9.158;2023-07-29T03:01:05;96375.00;;;18.71;100.00
13434;BME280;6789;47.678;9.158;2023-07-29T03:06:06;96377.56;;;18.58;100.00
13434;BME280;6789;47.678;9.158;2023-07-29T03:11:04;96373.59;;;18.56;100.00
13434;BME280;6789;47.678;9.158;2023-07-29T03:16:12;96379.13;;;18.82;100.00
13434;BME280;6789;47.678;9.158;2023-07-29T03:21:05;96378.19;;;18.73;100.00
13434;BME280;6789;47.678;9.158;2023-07-29T03:25:58;96386.25;;;18.87;100.00
13434;BME280;6789;47.678;9.158;2023-07-29T03:30:50;96384.50;;;18.77;100.00
13434;BME280;6789;47.678;9.158;2023-07-29T03:35:42;96385.09;;;18.74;100.00
13434;BME280;6789;47.678;9.158;2023-07-29T03:40:36;96376.47;;;18.82;100.00
13434;BME280;6789;47.678;9.158;2023-07-29T03:45:28;96388.97;;;18.82;100.00
13434;BME280;6789;47.678;9.158;2023-07-29T03:50:20;96400.13;;;18.61;100.00
13434;BME280;6789;47.678;9.158;2023-07-29T03:55:11;96402.44;;;18.44;100.00
13434;BME280;6789;47.678;9.158;2023-07-29T04:00:04;96392.38;;;18.64;100.00
13434;BME280;6789;47.678;9.158;2023-07-29T04:04:59;96384.25;;;18.56;100.00
13434;BME280;6789;47.678;9.158;2023-07-29T04:09:51;96387.16;;;18.77;100.00
13434;BME280;6789;47.678;9.158;2023-07-29T04:14:43;96409.38;;;18.86;100.00
13434;BME280;6789;47.678;9.158;2023-07-29T04:19:35;96423.28;;;18.78;100.00
13434;BME280;6789;47.678;9.158;2023-07-29T04:24:26;96435.44;;;18.84;100.00
13434;BME280;6789;47.678;9.158;2023-07-29T04:29:18;96440.94;;;18.69;100.00
13434;BME280;6789;47.678;9.158;2023-07-29T04:34:10;96441.09;;;19.01;100.00
13434;BME280;6789;47.678;9.158;2023-07-29T04:39:02;96450.56;;;18.89;100.00
13434;BME280;6789;47.678;9.158;2023-07-29T04:43:54;96443.53;;;19.21;100.00
13434;BME280;6789;47.678;9.158;2023-07-29T04:48:46;96432.84;;;19.03;100.00
13434;BME280;6789;47.678;9.158;2023-07-29T04:53:38;96415.72;;;18.90;100.00
13434;BME280;6789;47.678;9.158;2023-07-29T04:58:29;96419.34;;;18.99;100.00
13434;BME280;6789;47.678;9.158;2023-07-29T05:03:22;96425.06;;;19.11;100.00
13434;BME280;6789;47.678;9.158;2023-07-29T05:08:13;96417.16;;;19.01;100.00
13434;BME280;6789;47.678;9.158;2023-07-29T05:13:07;96414.66;;;18.91;100.00
13434;BME280;6789;47.678;9.158;2023-07-29T05:17:58;96406.28;;;19.03;100.00
13434;BME280;6789;47.678;9.158;2023-07-29T05:22:50;96409.41;;;19.10;100.00
13434;BME280;6789;47.678;9.158;2023-07-29T05:27:42;96405.78;;;19.61;100.00
13434;BME280;6789;47.678;9.158;2023-07-29T05:32:34;96394.63;;;20.41;100.00
13434;BME280;6789;47.678;9.158;2023-07-29T05:37:27;96407.13;;;20.72;100.00
13434;BME280;6789;47.678;9.158;2023-07-29T05:42:18;96423.03;;;21.31;100.00
13434;BME280;6789;47.678;9.158;2023-07-29T05:47:10;96419.50;;;21.22;100.00
13434;BME280;6789;47.678;9.158;2023-07-29T05:52:02;96428.00;;;21.24;100.00
13434;BME280;6789;47.678;9.158;2023-07-29T05:56:54;96433.81;;;21.26;100.00
13434;BME280;6789;47.678;9.158;2023-07-29T06:01:45;96432.16;;;21.03;100.00
13434;BME280;6789;47.678;9.158;2023-07-29T06:06:37;96431.66;;;21.14;100.00
13434;BME280;6789;47.678;9.158;2023-07-29T06:11:30;96438.47;;;21.82;100.00
13434;BME280;6789;47.678;9.158;2023-07-29T06:16:21;96422.50;;;22.87;93.13
13434;BME280;6789;47.678;9.158;2023-07-29T06:21:13;96425.72;;;23.70;88.75
13434;BME280;6789;47.678;9.158;2023-07-29T06:26:08;96416.69;;;24.75;82.39
13434;BME280;6789;47.678;9.158;2023-07-29T06:31:01;96432.56;;;24.09;83.67
13434;BME280;6789;47.678;9.158;2023-07-29T06:35:53;96420.13;;;23.79;86.16
13434;BME280;6789;47.678;9.158;2023-07-29T06:40:45;96417.59;;;24.00;86.13
13434;BME280;6789;47.678;9.158;2023-07-29T06:45:37;96425.94;;;24.07;84.16
13434;BME280;6789;47.678;9.158;2023-07-29T06:50:28;96432.41;;;23.97;87.30
13434;BME280;6789;47.678;9.158;2023-07-29T06:55:21;96424.31;;;24.56;82.93
13434;BME280;6789;47.678;9.158;2023-07-29T07:00:12;96418.19;;;24.93;78.47
13434;BME280;6789;47.678;9.158;2023-07-29T07:05:05;96417.44;;;25.30;74.39
13434;BME280;6789;47.678;9.158;2023-07-29T07:09:57;96428.63;;;25.61;72.21
13434;BME280;6789;47.678;9.158;2023-07-29T07:14:52;96422.47;;;25.60;72.15
13434;BME280;6789;47.678;9.158;2023-07-29T07:19:44;96426.66;;;25.70;71.94
13434;BME280;6789;47.678;9.158;2023-07-29T07:24:36;96405.16;;;25.70;72.35
13434;BME280;6789;47.678;9.158;2023-07-29T07:29:28;96395.91;;;25.59;73.80
13434;BME280;6789;47.678;9.158;2023-07-29T07:34:21;96397.75;;;25.67;72.91
13434;BME280;6789;47.678;9.158;2023-07-29T07:39:13;96399.06;;;26.01;71.88
13434;BME280;6789;47.678;9.158;2023-07-29T07:44:05;96390.19;;;26.21;69.63
13434;BME280;6789;47.678;9.158;2023-07-29T07:48:56;96407.75;;;26.60;69.05
13434;BME280;6789;47.678;9.158;2023-07-29T07:53:48;96397.88;;;26.64;67.28
13434;BME280;6789;47.678;9.158;2023-07-29T07:58:41;96400.34;;;26.80;66.92
13434;BME280;6789;47.678;9.158;2023-07-29T08:03:34;96404.38;;;27.19;65.47
13434;BME280;6789;47.678;9.158;2023-07-29T08:08:27;96403.69;;;27.22;64.04
13434;BME280;6789;47.678;9.158;2023-07-29T08:13:20;96392.69;;;27.62;63.51
13434;BME280;6789;47.678;9.158;2023-07-29T08:18:12;96393.31;;;27.71;62.41
13434;BME280;6789;47.678;9.158;2023-07-29T08:23:03;96394.69;;;27.30;61.71
13434;BME280;6789;47.678;9.158;2023-07-29T08:27:57;96400.31;;;27.60;62.76
13434;BME280;6789;47.678;9.158;2023-07-29T08:32:50;96394.59;;;27.26;63.33
13434;BME280;6789;47.678;9.158;2023-07-29T08:37:42;96399.63;;;27.40;62.88
13434;BME280;6789;47.678;9.158;2023-07-29T08:42:34;96396.94;;;27.40;63.31
13434;BME280;6789;47.678;9.158;2023-07-29T08:47:27;96388.31;;;27.34;62.61
13434;BME280;6789;47.678;9.158;2023-07-29T08:52:20;96398.84;;;27.63;61.75
13434;BME280;6789;47.678;9.158;2023-07-29T08:57:14;96394.69;;;27.30;62.21
13434;BME280;6789;47.678;9.158;2023-07-29T09:02:07;96397.16;;;27.11;62.35
13434;BME280;6789;47.678;9.158;2023-07-29T09:06:59;96391.44;;;27.00;62.29
13434;BME280;6789;47.678;9.158;2023-07-29T09:11:53;96396.94;;;27.04;62.88
13434;BME280;6789;47.678;9.158;2023-07-29T09:16:46;96395.31;;;26.79;63.97
13434;BME280;6789;47.678;9.158;2023-07-29T09:21:42;96393.22;;;26.52;65.50
13434;BME280;6789;47.678;9.158;2023-07-29T09:26:35;96390.44;;;27.17;64.04
13434;BME280;6789;47.678;9.158;2023-07-29T09:31:28;96387.94;;;27.47;61.87
13434;BME280;6789;47.678;9.158;2023-07-29T09:36:23;96387.38;;;27.42;61.60
13434;BME280;6789;47.678;9.158;2023-07-29T09:41:16;96394.22;;;26.92;63.29
13434;BME280;6789;47.678;9.158;2023-07-29T09:46:08;96389.09;;;26.22;62.72
13434;BME280;6789;47.678;9.158;2023-07-29T09:50:59;96389.34;;;26.29;63.61
13434;BME280;6789;47.678;9.158;2023-07-29T09:55:53;96388.06;;;26.47;63.77
13434;BME280;6789;47.678;9.158;2023-07-29T10:00:46;96383.59;;;26.51;62.03
13434;BME280;6789;47.678;9.158;2023-07-29T10:05:38;96373.41;;;26.57;62.02
13434;BME280;6789;47.678;9.158;2023-07-29T10:10:30;96374.16;;;26.45;62.76
13434;BME280;6789;47.678;9.158;2023-07-29T10:15:23;96379.63;;;26.69;61.75
13434;BME280;6789;47.678;9.158;2023-07-29T10:20:16;96371.34;;;27.10;60.94
13434;BME280;6789;47.678;9.158;2023-07-29T10:25:16;96371.97;;;26.95;59.95
13434;BME280;6789;47.678;9.158;2023-07-29T10:30:11;96382.09;;;26.98;61.55
13434;BME280;6789;47.678;9.158;2023-07-29T10:35:04;96378.31;;;26.99;59.37
13434;BME280;6789;47.678;9.158;2023-07-29T10:39:57;96367.75;;;27.30;59.88
13434;BME280;6789;47.678;9.158;2023-07-29T10:44:51;96359.63;;;27.65;59.33
13434;BME280;6789;47.678;9.158;2023-07-29T10:49:45;96368.19;;;27.08;57.17
13434;BME280;6789;47.678;9.158;2023-07-29T10:54:45;96359.13;;;27.12;58.46
13434;BME280;6789;47.678;9.158;2023-07-29T10:59:37;96351.13;;;27.40;58.19
13434;BME280;6789;47.678;9.158;2023-07-29T11:04:30;96353.25;;;27.97;55.12
13434;BME280;6789;47.678;9.158;2023-07-29T11:14:39;96336.72;;;28.26;54.55
13434;BME280;6789;47.678;9.158;2023-07-29T11:19:32;96333.97;;;28.53;52.47
13434;BME280;6789;47.678;9.158;2023-07-29T11:24:25;96325.63;;;28.43;52.77
13434;BME280;6789;47.678;9.158;2023-07-29T11:29:16;96325.25;;;28.29;53.18
13434;BME280;6789;47.678;9.158;2023-07-29T11:34:08;96328.09;;;27.93;53.76
13434;BME280;6789;47.678;9.158;2023-07-29T11:39:09;96318.72;;;28.03;54.81
13434;BME280;6789;47.678;9.158;2023-07-29T11:44:01;96319.22;;;28.20;52.04
13434;BME280;6789;47.678;9.158;2023-07-29T11:48:54;96295.16;;;28.15;52.76
13434;BME280;6789;47.678;9.158;2023-07-29T11:53:46;96296.28;;;28.14;53.23
13434;BME280;6789;47.678;9.158;2023-07-29T11:58:39;96290.75;;;28.38;54.61
13434;BME280;6789;47.678;9.158;2023-07-29T12:03:31;96282.47;;;28.31;54.24
13434;BME280;6789;47.678;9.158;2023-07-29T12:08:23;96289.72;;;28.58;55.21
13434;BME280;6789;47.678;9.158;2023-07-29T12:13:15;96296.06;;;28.34;55.44
13434;BME280;6789;47.678;9.158;2023-07-29T12:18:07;96328.31;;;27.88;53.78
13434;BME280;6789;47.678;9.158;2023-07-29T12:23:00;96332.53;;;27.74;54.72
13434;BME280;6789;47.678;9.158;2023-07-29T12:28:02;96360.22;;;27.47;56.61
13434;BME280;6789;47.678;9.158;2023-07-29T12:32:54;96359.75;;;26.85;61.04
13434;BME280;6789;47.678;9.158;2023-07-29T12:37:46;96374.94;;;26.13;65.96
13434;BME280;6789;47.678;9.158;2023-07-29T12:42:38;96375.34;;;25.42;70.08
13434;BME280;6789;47.678;9.158;2023-07-29T12:47:30;96360.34;;;25.13;75.35
13434;BME280;6789;47.678;9.158;2023-07-29T12:52:22;96372.47;;;24.81;79.96
13434;BME280;6789;47.678;9.158;2023-07-29T12:57:14;96370.03;;;24.59;80.72
13434;BME280;6789;47.678;9.158;2023-07-29T13:02:06;96374.09;;;24.65;82.67
13434;BME280;6789;47.678;9.158;2023-07-29T13:06:58;96371.41;;;24.65;83.50
13434;BME280;6789;47.678;9.158;2023-07-29T13:11:51;96385.50;;;24.62;81.06
13434;BME280;6789;47.678;9.158;2023-07-29T13:16:43;96396.53;;;24.52;81.38
13434;BME280;6789;47.678;9.158;2023-07-29T13:21:35;96410.34;;;24.09;85.87
13434;BME280;6789;47.678;9.158;2023-07-29T13:26:26;96419.47;;;23.74;87.67
13434;BME280;6789;47.678;9.158;2023-07-29T13:31:18;96425.22;;;23.51;90.19
13434;BME280;6789;47.678;9.158;2023-07-29T13:36:10;96448.78;;;23.23;90.68
13434;BME280;6789;47.678;9.158;2023-07-29T13:41:03;96458.13;;;22.96;88.62
13434;BME280;6789;47.678;9.158;2023-07-29T13:45:55;96457.50;;;22.68;89.70
13434;BME280;6789;47.678;9.158;2023-07-29T13:50:47;96465.41;;;22.51;92.54
13434;BME280;6789;47.678;9.158;2023-07-29T13:55:38;96466.31;;;22.25;94.18
13434;BME280;6789;47.678;9.158;2023-07-29T14:00:30;96461.09;;;22.20;95.12
13434;BME280;6789;47.678;9.158;2023-07-29T14:05:22;96449.06;;;22.09;94.68
13434;BME280;6789;47.678;9.158;2023-07-29T14:10:14;96439.00;;;22.28;94.69
13434;BME280;6789;47.678;9.158;2023-07-29T14:15:07;96445.97;;;22.16;97.45
13434;BME280;6789;47.678;9.158;2023-07-29T14:19:58;96422.94;;;22.06;90.60
13434;BME280;6789;47.678;9.158;2023-07-29T14:24:50;96427.91;;;21.99;94.76
13434;BME280;6789;47.678;9.158;2023-07-29T14:29:42;96427.53;;;21.92;96.24
13434;BME280;6789;47.678;9.158;2023-07-29T14:34:35;96443.72;;;22.09;99.05
13434;BME280;6789;47.678;9.158;2023-07-29T14:39:27;96418.59;;;22.32;98.41
13434;BME280;6789;47.678;9.158;2023-07-29T14:44:18;96451.56;;;22.80;96.79
13434;BME280;6789;47.678;9.158;2023-07-29T14:49:10;96454.78;;;23.20;91.64
13434;BME280;6789;47.678;9.158;2023-07-29T14:54:03;96476.69;;;23.31;88.54
13434;BME280;6789;47.678;9.158;2023-07-29T14:58:54;96482.56;;;23.02;90.61
13434;BME280;6789;47.678;9.158;2023-07-29T15:03:46;96501.34;;;22.89;94.16
13434;BME280;6789;47.678;9.158;2023-07-29T15:08:38;96508.84;;;22.79;95.69
13434;BME280;6789;47.678;9.158;2023-07-29T15:13:30;96512.16;;;22.54;96.56
13434;BME280;6789;47.678;9.158;2023-07-29T15:18:23;96517.66;;;22.35;97.51
13434;BME280;6789;47.678;9.158;2023-07-29T15:23:14;96510.34;;;22.41;97.21
13434;BME280;6789;47.678;9.158;2023-07-29T15:28:06;96494.41;;;22.58;96.81
13434;BME280;6789;47.678;9.158;2023-07-29T15:32:58;96506.31;;;22.52;96.92
13434;BME280;6789;47.678;9.158;2023-07-29T15:37:50;96503.09;;;22.63;96.49
13434;BME280;6789;47.678;9.158;2023-07-29T15:42:43;96509.47;;;22.54;94.66
13434;BME280;6789;47.678;9.158;2023-07-29T15:47:35;96508.50;;;22.50;95.24
13434;BME280;6789;47.678;9.158;2023-07-29T15:52:27;96507.22;;;22.69;94.30
13434;BME280;6789;47.678;9.158;2023-07-29T15:57:21;96502.06;;;22.51;94.97
13434;BME280;6789;47.678;9.158;2023-07-29T16:02:14;96501.28;;;22.50;97.76
13434;BME280;6789;47.678;9.158;2023-07-29T16:07:06;96498.28;;;22.52;98.12
13434;BME280;6789;47.678;9.158;2023-07-29T16:11:57;96491.97;;;22.70;95.07
13434;BME280;6789;47.678;9.158;2023-07-29T16:16:50;96479.09;;;22.72;96.67
13434;BME280;6789;47.678;9.158;2023-07-29T16:21:42;96484.16;;;22.82;94.63
13434;BME280;6789;47.678;9.158;2023-07-29T16:26:36;96482.88;;;22.79;95.06
13434;BME280;6789;47.678;9.158;2023-07-29T16:31:29;96486.75;;;22.65;96.66
13434;BME280;6789;47.678;9.158;2023-07-29T16:36:21;96487.72;;;22.47;97.82
13434;BME280;6789;47.678;9.158;2023-07-29T16:41:13;96488.13;;;22.40;98.43
13434;BME280;6789;47.678;9.158;2023-07-29T16:46:10;96485.59;;;22.35;97.26
13434;BME280;6789;47.678;9.158;2023-07-29T16:51:02;96473.72;;;22.28;97.50
13434;BME280;6789;47.678;9.158;2023-07-29T16:55:55;96486.81;;;22.29;98.43
13434;BME280;6789;47.678;9.158;2023-07-29T17:00:47;96484.50;;;22.23;99.35
13434;BME280;6789;47.678;9.158;2023-07-29T17:05:39;96470.78;;;22.29;96.88
13434;BME280;6789;47.678;9.158;2023-07-29T17:10:31;96477.91;;;22.21;97.62
13434;BME280;6789;47.678;9.158;2023-07-29T17:15:23;96489.03;;;22.14;99.42
13434;BME280;6789;47.678;9.158;2023-07-29T17:20:15;96489.25;;;22.04;98.99
13434;BME280;6789;47.678;9.158;2023-07-29T17:25:09;96501.25;;;21.93;100.00
13434;BME280;6789;47.678;9.158;2023-07-29T17:30:02;96495.81;;;21.85;100.00
13434;BME280;6789;47.678;9.158;2023-07-29T17:34:54;96502.88;;;21.81;100.00
13434;BME280;6789;47.678;9.158;2023-07-29T17:39:46;96507.22;;;21.77;100.00
13434;BME280;6789;47.678;9.158;2023-07-29T17:44:38;96485.91;;;21.99;100.00
13434;BME280;6789;47.678;9.158;2023-07-29T17:49:30;96496.13;;;22.19;100.00
13434;BME280;6789;47.678;9.158;2023-07-29T17:54:21;96499.75;;;22.01;100.00
13434;BME280;6789;47.678;9.158;2023-07-29T17:59:13;96507.97;;;22.04;100.00
13434;BME280;6789;47.678;9.158;2023-07-29T18:04:05;96504.97;;;22.06;100.00
13434;BME280;6789;47.678;9.158;2023-07-29T18:08:57;96507.09;;;21.95;100.00
13434;BME280;6789;47.678;9.158;2023-07-29T18:13:49;96522.13;;;21.91;100.00
13434;BME280;6789;47.678;9.158;2023-07-29T18:18:41;96512.53;;;21.90;100.00
13434;BME280;6789;47.678;9.158;2023-07-29T18:23:33;96512.16;;;21.83;100.00
13434;BME280;6789;47.678;9.158;2023-07-29T18:28:24;96506.94;;;21.78;100.00
13434;BME280;6789;47.678;9.158;2023-07-29T18:33:16;96505.97;;;21.61;100.00
13434;BME280;6789;47.678;9.158;2023-07-29T18:38:09;96512.88;;;21.49;100.00
13434;BME280;6789;47.678;9.158;2023-07-29T18:43:01;96508.53;;;21.39;100.00
13434;BME280;6789;47.678;9.158;2023-07-29T18:47:53;96512.47;;;21.28;100.00
13434;BME280;6789;47.678;9.158;2023-07-29T18:52:44;96494.09;;;21.13;98.96
13434;BME280;6789;47.678;9.158;2023-07-29T18:57:36;96499.22;;;21.10;100.00
13434;BME280;6789;47.678;9.158;2023-07-29T19:02:28;96502.38;;;20.98;100.00
13434;BME280;6789;47.678;9.158;2023-07-29T19:07:20;96501.84;;;20.96;98.41
13434;BME280;6789;47.678;9.158;2023-07-29T19:12:13;96511.03;;;20.77;100.00
13434;BME280;6789;47.678;9.158;2023-07-29T19:17:05;96519.63;;;20.87;99.96
13434;BME280;6789;47.678;9.158;2023-07-29T19:21:57;96518.72;;;20.79;99.06
13434;BME280;6789;47.678;9.158;2023-07-29T19:26:51;96518.00;;;20.73;100.00
13434;BME280;6789;47.678;9.158;2023-07-29T19:31:44;96518.06;;;20.68;99.57
13434;BME280;6789;47.678;9.158;2023-07-29T19:36:36;96512.56;;;20.65;99.56
13434;BME280;6789;47.678;9.158;2023-07-29T19:41:28;96523.38;;;20.68;99.30
13434;BME280;6789;47.678;9.158;2023-07-29T19:46:20;96525.16;;;20.59;99.61
13434;BME280;6789;47.678;9.158;2023-07-29T19:51:29;96530.06;;;20.52;100.00
13434;BME280;6789;47.678;9.158;2023-07-29T19:56:23;96533.56;;;20.66;98.67
13434;BME280;6789;47.678;9.158;2023-07-29T20:01:15;96524.97;;;20.69;98.54
13434;BME280;6789;47.678;9.158;2023-07-29T20:06:07;96523.56;;;20.58;99.58
13434;BME280;6789;47.678;9.158;2023-07-29T20:10:59;96526.06;;;20.36;100.00
13434;BME280;6789;47.678;9.158;2023-07-29T20:15:52;96523.69;;;20.35;100.00
13434;BME280;6789;47.678;9.158;2023-07-29T20:20:44;96518.28;;;20.40;100.00
13434;BME280;6789;47.678;9.158;2023-07-29T20:25:37;96524.19;;;20.37;100.00
13434;BME280;6789;47.678;9.158;2023-07-29T20:30:29;96520.53;;;20.33;100.00
13434;BME280;6789;47.678;9.158;2023-07-29T20:35:24;96535.22;;;20.30;100.00
13434;BME280;6789;47.678;9.158;2023-07-29T20:40:16;96521.69;;;20.27;100.00
13434;BME280;6789;47.678;9.158;2023-07-29T20:45:09;96522.38;;;20.32;100.00
13434;BME280;6789;47.678;9.158;2023-07-29T20:50:01;96512.16;;;20.39;100.00
13434;BME280;6789;47.678;9.158;2023-07-29T20:54:52;96511.03;;;20.27;100.00
13434;BME280;6789;47.678;9.158;2023-07-29T20:59:52;96509.44;;;20.08;100.00
13434;BME280;6789;47.678;9.158;2023-07-29T21:04:44;96536.00;;;20.12;100.00
13434;BME280;6789;47.678;9.158;2023-07-29T21:09:35;96542.00;;;20.05;100.00
13434;BME280;6789;47.678;9.158;2023-07-29T21:14:28;96540.00;;;19.92;100.00
13434;BME280;6789;47.678;9.158;2023-07-29T21:19:19;96549.47;;;20.03;100.00
13434;BME280;6789;47.678;9.158;2023-07-29T21:24:11;96529.53;;;20.18;100.00
13434;BME280;6789;47.678;9.158;2023-07-29T21:29:06;96527.75;;;20.14;100.00
13434;BME280;6789;47.678;9.158;2023-07-29T21:34:01;96536.56;;;20.28;100.00
13434;BME280;6789;47.678;9.158;2023-07-29T21:38:52;96540.13;;;20.23;100.00
13434;BME280;6789;47.678;9.158;2023-07-29T21:43:44;96527.97;;;20.17;100.00
13434;BME280;6789;47.678;9.158;2023-07-29T21:48:36;96531.09;;;20.19;100.00
13434;BME280;6789;47.678;9.158;2023-07-29T21:53:28;96524.78;;;19.97;100.00
13434;BME280;6789;47.678;9.158;2023-07-29T21:58:20;96527.78;;;19.91;100.00
13434;BME280;6789;47.678;9.158;2023-07-29T22:03:12;96539.19;;;19.73;100.00
13434;BME280;6789;47.678;9.158;2023-07-29T22:08:04;96553.66;;;19.67;100.00
13434;BME280;6789;47.678;9.158;2023-07-29T22:12:56;96554.88;;;19.51;100.00
13434;BME280;6789;47.678;9.158;2023-07-29T22:17:48;96559.81;;;19.62;100.00
13434;BME280;6789;47.678;9.158;2023-07-29T22:22:41;96557.09;;;19.44;100.00
13434;BME280;6789;47.678;9.158;2023-07-29T22:27:32;96559.56;;;19.40;100.00
13434;BME280;6789;47.678;9.158;2023-07-29T22:32:24;96558.13;;;19.48;100.00
13434;BME280;6789;47.678;9.158;2023-07-29T22:37:16;96546.28;;;19.35;100.00
13434;BME280;6789;47.678;9.158;2023-07-29T22:42:08;96542.69;;;19.27;100.00
13434;BME280;6789;47.678;9.158;2023-07-29T22:47:00;96530.84;;;19.14;100.00
13434;BME280;6789;47.678;9.158;2023-07-29T22:51:52;96528.19;;;19.14;100.00
13434;BME280;6789;47.678;9.158;2023-07-29T22:56:44;96540.09;;;19.22;100.00
13434;BME280;6789;47.678;9.158;2023-07-29T23:01:36;96533.66;;;18.99;100.00
13434;BME280;6789;47.678;9.158;2023-07-29T23:06:28;96529.72;;;18.92;100.00
13434;BME280;6789;47.678;9.158;2023-07-29T23:11:19;96530.97;;;18.99;100.00
13434;BME280;6789;47.678;9.158;2023-07-29T23:16:11;96533.72;;;19.18;100.00
13434;BME280;6789;47.678;9.158;2023-07-29T23:21:04;96529.88;;;19.29;100.00
13434;BME280;6789;47.678;9.158;2023-07-29T23:25:56;96524.38;;;19.25;100.00
13434;BME280;6789;47.678;9.158;2023-07-29T23:30:48;96524.69;;;19.19;100.00
13434;BME280;6789;47.678;9.158;2023-07-29T23:35:39;96528.66;;;19.44;100.00
13434;BME280;6789;47.678;9.158;2023-07-29T23:40:31;96523.94;;;19.60;100.00
13434;BME280;6789;47.678;9.158;2023-07-29T23:45:23;96526.44;;;19.70;100.00
13434;BME280;6789;47.678;9.158;2023-07-29T23:50:15;96532.84;;;19.69;100.00
13434;BME280;6789;47.678;9.158;2023-07-29T23:55:07;96518.97;;;19.72;100.00
13434;BME280;6789;47.678;9.158;2023-07-29T23:59:59;96523.63;;;19.61;100.00
